Time;durP1;ratioP1;P1;durP2;ratioP2;P2;SDS_P1;SDS_P2;PMS_P1;PMS_P2;Temp;Humidity;BMP_temperature;BMP_pressure;BME280_temperature;BME280_humidity;BME280_pressure;Samples;Min_cycle;Max_cycle;Signal;HPM_P1;HPM_P2
2022/11/10 00:00:12;;;;;;;9.00;3.70;;;;;;;11.57;78.95;100330.50;5082750;28;20444;-62
2022/11/10 00:02:42;;;;;;;7.13;3.50;;;;;;;11.55;79.53;100324.44;5081683;28;20788;-62
2022/11/10 00:05:09;;;;;;;6.13;4.13;;;;;;;11.65;78.93;100328.78;5079651;28;20492;-62
2022/11/10 00:07:36;;;;;;;10.87;5.53;;;;;;;11.65;79.30;100335.97;5100626;28;20478;-61
2022/11/10 00:10:05;;;;;;;7.47;4.13;;;;;;;11.65;78.82;100336.81;5092905;28;20492;-62
2022/11/10 00:12:32;;;;;;;12.37;3.97;;;;;;;11.58;78.88;100338.38;5090492;28;20452;-62
2022/11/10 00:17:43;;;;;;;6.53;3.40;;;;;;;11.52;79.81;100346.16;5079725;28;20491;-61
2022/11/10 00:20:11;;;;;;;8.43;4.20;;;;;;;11.55;79.68;100352.06;5079805;28;20488;-62
2022/11/10 00:22:39;;;;;;;17.03;4.30;;;;;;;11.36;80.22;100357.47;5098119;28;20471;-61
2022/11/10 00:25:08;;;;;;;7.30;3.40;;;;;;;11.42;80.30;100367.56;5081472;28;20973;-61
2022/11/10 00:27:35;;;;;;;9.87;3.70;;;;;;;11.36;80.61;100368.16;5088342;28;20904;-61
2022/11/10 00:30:01;;;;;;;19.13;3.70;;;;;;;11.31;80.66;100356.03;5082742;28;20495;-62
2022/11/10 00:32:28;;;;;;;9.87;3.70;;;;;;;11.28;80.62;100364.38;5099320;28;20471;-61
2022/11/10 00:34:55;;;;;;;8.10;3.73;;;;;;;11.28;80.84;100371.53;5084114;28;20449;-62
2022/11/10 00:37:21;;;;;;;10.17;4.20;;;;;;;11.39;80.51;100365.22;5085391;28;20549;-62
2022/11/10 00:39:48;;;;;;;8.60;3.83;;;;;;;11.26;80.85;100377.03;5079228;28;20991;-61
2022/11/10 00:42:16;;;;;;;8.40;3.30;;;;;;;11.24;81.28;100379.00;5078799;28;20506;-61
2022/11/10 00:44:43;;;;;;;8.40;3.60;;;;;;;11.15;81.79;100376.34;5085411;28;20498;-62
2022/11/10 00:47:09;;;;;;;13.87;3.80;;;;;;;11.25;81.41;100371.84;5098530;28;20538;-61
2022/11/10 00:49:36;;;;;;;14.43;4.90;;;;;;;11.07;81.88;100377.88;5099828;28;20459;-61
2022/11/10 00:52:03;;;;;;;11.97;4.17;;;;;;;10.99;82.33;100392.94;5089161;28;20538;-61
2022/11/10 00:54:30;;;;;;;9.00;3.70;;;;;;;11.01;82.74;100397.19;5079969;28;20985;-61
2022/11/10 00:56:56;;;;;;;8.10;4.00;;;;;;;10.98;82.50;100396.63;5099520;28;20478;-61
2022/11/10 00:59:24;;;;;;;10.63;4.13;;;;;;;11.01;82.94;100391.00;5098544;28;20475;-61
2022/11/10 01:01:51;;;;;;;11.00;4.40;;;;;;;10.96;82.90;100388.72;5081680;28;20931;-61
2022/11/10 01:04:17;;;;;;;11.50;4.77;;;;;;;10.93;83.29;100397.84;5100122;28;20509;-61
2022/11/10 01:06:46;;;;;;;10.63;4.23;;;;;;;10.97;83.37;100402.94;5085363;28;20580;-61
2022/11/10 01:09:13;;;;;;;11.97;4.60;;;;;;;10.96;83.35;100403.94;5080884;28;20573;-62
2022/11/10 01:11:44;;;;;;;12.30;4.50;;;;;;;10.86;83.82;100404.75;5095435;28;20479;-61
2022/11/10 01:14:11;;;;;;;11.60;4.93;;;;;;;10.91;83.81;100410.53;5092606;28;20483;-61
2022/11/10 01:16:39;;;;;;;10.47;4.90;;;;;;;10.97;83.70;100413.63;5084150;28;20479;-61
2022/11/10 01:19:05;;;;;;;10.53;3.90;;;;;;;10.86;84.15;100415.44;5097593;28;20463;-61
2022/11/10 01:21:32;;;;;;;16.53;4.63;;;;;;;10.84;84.23;100414.75;5093055;28;20594;-61
2022/11/10 01:23:59;;;;;;;13.00;5.23;;;;;;;10.87;84.15;100411.81;5088937;28;20483;-61
2022/11/10 01:26:26;;;;;;;16.20;5.63;;;;;;;10.93;83.81;100410.41;5084627;28;20511;-62
2022/11/10 01:28:53;;;;;;;10.93;4.90;;;;;;;10.72;84.47;100419.38;5090364;28;20439;-62
2022/11/10 01:31:21;;;;;;;11.73;5.10;;;;;;;10.77;84.54;100410.94;5097960;28;20502;-62
2022/11/10 01:33:49;;;;;;;13.80;4.57;;;;;;;10.86;84.13;100428.81;5093063;28;20480;-61
2022/11/10 01:36:16;;;;;;;23.03;5.80;;;;;;;10.79;84.80;100424.19;5084352;28;20468;-61
2022/11/10 01:38:43;;;;;;;17.03;4.83;;;;;;;10.76;84.73;100422.59;5102996;28;20436;-62
2022/11/10 01:41:13;;;;;;;14.70;5.73;;;;;;;10.69;85.08;100426.81;5090247;28;21003;-61
2022/11/10 01:43:39;;;;;;;14.33;5.20;;;;;;;10.62;85.25;100426.50;5091672;28;20475;-61
2022/11/10 01:46:08;;;;;;;8.70;4.40;;;;;;;10.63;85.65;100435.41;5103447;28;20486;-61
2022/11/10 01:48:38;;;;;;;20.57;5.33;;;;;;;10.59;85.83;100450.00;5097731;28;20470;-62
2022/11/10 01:51:08;;;;;;;19.30;5.40;;;;;;;10.60;86.03;100449.88;5090904;28;20540;-61
2022/11/10 01:53:38;;;;;;;16.87;5.40;;;;;;;10.62;85.82;100452.41;5101401;28;20452;-61
2022/11/10 01:56:06;;;;;;;12.37;4.80;;;;;;;10.54;86.00;100450.44;5101556;28;20470;-61
2022/11/10 01:58:38;;;;;;;10.27;5.50;;;;;;;10.63;86.08;100454.13;5102586;28;20968;-61
2022/11/10 02:01:05;;;;;;;15.93;5.83;;;;;;;10.58;86.29;100453.69;5101776;28;20467;-60
2022/11/10 02:03:36;;;;;;;13.53;5.50;;;;;;;10.61;86.10;100459.59;5083991;28;20456;-61
2022/11/10 02:06:03;;;;;;;13.33;6.20;;;;;;;10.50;86.27;100457.88;5071736;28;20484;-61
2022/11/10 02:08:31;;;;;;;14.27;6.07;;;;;;;10.54;86.51;100466.47;5104321;28;20456;-61
2022/11/10 02:10:58;;;;;;;14.57;7.00;;;;;;;10.49;86.76;100458.84;5090962;28;20474;-62
2022/11/10 02:13:25;;;;;;;11.83;6.10;;;;;;;10.59;86.65;100458.91;5096724;28;20443;-61
2022/11/10 02:15:52;;;;;;;10.97;6.30;;;;;;;10.69;86.37;100472.28;5084281;28;20525;-61
2022/11/10 02:18:18;;;;;;;11.90;5.93;;;;;;;10.63;86.14;100473.69;5090035;28;20466;-62
2022/11/10 02:20:47;;;;;;;11.13;6.10;;;;;;;10.78;86.18;100482.19;5101176;28;21018;-62
2022/11/10 02:23:15;;;;;;;12.80;5.90;;;;;;;10.71;85.92;100481.00;5096685;28;20474;-61
2022/11/10 02:25:41;;;;;;;10.13;6.43;;;;;;;10.65;86.25;100485.06;5086224;28;20541;-61
2022/11/10 02:28:08;;;;;;;18.27;6.67;;;;;;;10.73;86.07;100473.72;5098115;28;20468;-61
2022/11/10 02:30:35;;;;;;;12.03;6.60;;;;;;;10.62;86.68;100469.28;5091955;28;20467;-61
2022/11/10 02:33:02;;;;;;;10.83;6.60;;;;;;;10.68;86.59;100466.09;5102169;28;20457;-61
2022/11/10 02:35:29;;;;;;;21.50;6.20;;;;;;;10.68;86.32;100467.94;5101659;28;20964;-61
2022/11/10 02:37:57;;;;;;;14.57;6.73;;;;;;;10.64;86.79;100466.50;5103453;28;20451;-61
2022/11/10 02:40:24;;;;;;;12.77;7.50;;;;;;;10.61;86.92;100466.78;5090005;28;20498;-60
2022/11/10 02:42:51;;;;;;;15.07;7.60;;;;;;;10.68;86.63;100474.13;5083319;28;20480;-60
2022/11/10 02:45:18;;;;;;;22.47;7.90;;;;;;;10.68;87.09;100484.81;5098902;28;21007;-61
2022/11/10 02:47:44;;;;;;;15.17;7.33;;;;;;;10.76;86.35;100494.81;5091117;28;20452;-61
2022/11/10 02:50:11;;;;;;;13.17;7.73;;;;;;;10.72;86.62;100490.72;5100910;28;20638;-61
2022/11/10 02:52:38;;;;;;;16.23;7.13;;;;;;;10.70;86.55;100490.88;5101791;28;20440;-61
2022/11/10 02:55:07;;;;;;;12.90;6.60;;;;;;;10.74;86.67;100502.13;5094978;28;20484;-61
2022/11/10 02:57:33;;;;;;;15.20;7.63;;;;;;;10.77;86.77;100504.53;5082644;28;20464;-61
2022/11/10 03:00:00;;;;;;;15.47;6.60;;;;;;;10.66;87.17;100500.16;5092354;28;20453;-61
2022/11/10 03:02:27;;;;;;;14.67;6.90;;;;;;;10.82;86.49;100494.28;5083061;28;20732;-61
2022/11/10 03:04:54;;;;;;;14.03;8.53;;;;;;;10.75;86.44;100503.84;5100902;28;20511;-61
2022/11/10 03:07:20;;;;;;;17.43;7.07;;;;;;;10.76;87.10;100504.69;5102514;28;20479;-61
2022/11/10 03:09:47;;;;;;;11.63;6.70;;;;;;;10.82;86.72;100504.16;5087861;28;21002;-60
2022/11/10 03:12:15;;;;;;;15.60;6.80;;;;;;;10.82;86.47;100506.81;5098714;28;20536;-61
2022/11/10 03:14:42;;;;;;;13.33;7.57;;;;;;;10.85;86.52;100514.56;5097849;28;20475;-61
2022/11/10 03:17:09;;;;;;;12.23;7.20;;;;;;;10.91;86.35;100512.19;5082429;28;21261;-62
2022/11/10 03:19:35;;;;;;;12.33;8.20;;;;;;;10.73;86.72;100505.81;5094626;28;20454;-62
2022/11/10 03:22:02;;;;;;;15.17;8.07;;;;;;;10.69;87.08;100513.25;5099872;28;20479;-61
2022/11/10 03:24:29;;;;;;;19.50;7.77;;;;;;;10.66;87.16;100513.53;5087122;28;20514;-60
2022/11/10 03:26:56;;;;;;;15.37;7.50;;;;;;;10.65;87.05;100514.50;5098437;28;20491;-61
2022/11/10 03:29:24;;;;;;;13.40;7.30;;;;;;;10.64;87.61;100520.84;5099191;28;20999;-61
2022/11/10 03:31:50;;;;;;;15.27;7.90;;;;;;;10.66;87.46;100526.88;5092033;28;20522;-62
2022/11/10 03:34:17;;;;;;;16.67;7.43;;;;;;;10.79;87.06;100537.34;5102069;28;20452;-61
2022/11/10 03:36:44;;;;;;;15.70;6.73;;;;;;;10.65;87.29;100543.91;5094923;28;21031;-61
2022/11/10 03:39:11;;;;;;;15.50;7.30;;;;;;;10.67;87.36;100546.44;5082024;28;20538;-62
2022/11/10 03:41:37;;;;;;;14.67;7.70;;;;;;;10.60;87.77;100556.81;5095872;28;20987;-61
2022/11/10 03:44:04;;;;;;;12.87;6.87;;;;;;;10.67;87.74;100552.63;5089703;28;20479;-61
2022/11/10 03:46:32;;;;;;;14.43;6.67;;;;;;;10.76;87.24;100542.13;5081120;28;21196;-60
2022/11/10 03:48:59;;;;;;;15.03;7.00;;;;;;;10.68;87.30;100532.09;5083698;28;20439;-61
2022/11/10 03:51:26;;;;;;;14.53;5.50;;;;;;;10.70;87.31;100546.19;5082737;28;20895;-61
2022/11/10 03:53:53;;;;;;;12.13;6.33;;;;;;;10.66;87.25;100544.75;5093470;28;20593;-61
2022/11/10 03:56:19;;;;;;;18.37;6.30;;;;;;;10.62;87.80;100559.38;5086301;28;20476;-61
2022/11/10 03:58:46;;;;;;;16.03;6.83;;;;;;;10.71;87.66;100563.91;5090400;28;20443;-61
2022/11/10 04:01:13;;;;;;;15.03;6.80;;;;;;;10.61;87.89;100571.06;5087995;28;20533;-61
2022/11/10 04:03:41;;;;;;;15.50;6.40;;;;;;;10.67;87.99;100570.50;5082120;28;20466;-61
2022/11/10 04:09:01;;;;;;;13.67;5.67;;;;;;;10.85;86.84;100573.41;5081856;28;20439;-61
2022/11/10 04:16:59;;;;;;;11.30;6.07;;;;;;;10.79;87.31;100582.81;5082664;28;20489;-61
2022/11/10 04:19:27;;;;;;;8.60;4.80;;;;;;;10.75;87.33;100576.03;5089607;28;20453;-62
2022/11/10 04:21:54;;;;;;;12.27;6.50;;;;;;;10.70;87.52;100580.94;5081721;28;21131;-61
2022/11/10 04:24:21;;;;;;;16.07;6.10;;;;;;;10.63;87.79;100587.81;5084578;28;20452;-60
2022/11/10 04:26:48;;;;;;;13.97;6.17;;;;;;;10.69;87.53;100582.78;5096601;28;20483;-61
2022/11/10 04:29:17;;;;;;;14.17;6.30;;;;;;;10.73;87.29;100586.88;5081535;28;20421;-61
2022/11/10 04:31:44;;;;;;;16.00;7.20;;;;;;;10.73;87.32;100594.06;5098692;28;20495;-61
2022/11/10 04:34:12;;;;;;;18.30;8.10;;;;;;;10.54;87.64;100589.44;5099635;28;20455;-60
2022/11/10 04:36:42;;;;;;;18.53;6.17;;;;;;;10.58;88.12;100601.56;5092169;28;20476;-60
2022/11/10 04:39:10;;;;;;;17.80;6.70;;;;;;;10.59;88.32;100594.38;5096488;28;20459;-60
2022/11/10 04:41:37;;;;;;;12.83;6.70;;;;;;;10.47;88.32;100601.66;5099646;28;20494;-61
2022/11/10 04:44:04;;;;;;;12.07;6.07;;;;;;;10.28;89.43;100611.19;5088427;28;21184;-61
2022/11/10 04:46:33;;;;;;;11.27;7.53;;;;;;;10.34;89.46;100624.06;5080551;28;20689;-61
2022/11/10 04:49:00;;;;;;;10.87;6.43;;;;;;;10.30;89.01;100621.75;5088271;28;20497;-61
2022/11/10 04:51:29;;;;;;;13.57;6.10;;;;;;;10.24;90.01;100628.47;5089082;28;20472;-61
2022/11/10 04:53:57;;;;;;;11.17;6.77;;;;;;;10.27;89.79;100630.03;5080774;28;20466;-61
2022/11/10 04:56:24;;;;;;;14.60;6.00;;;;;;;10.26;90.02;100637.22;5095602;28;20475;-60
2022/11/10 04:58:51;;;;;;;17.23;6.57;;;;;;;10.37;89.96;100636.31;5099238;28;20501;-61
2022/11/10 05:01:20;;;;;;;13.00;6.30;;;;;;;10.25;89.81;100640.84;5086491;28;20476;-68
2022/11/10 05:03:47;;;;;;;14.47;5.97;;;;;;;10.33;89.48;100638.41;5084046;28;20456;-62
2022/11/10 05:06:14;;;;;;;13.40;6.40;;;;;;;10.28;90.06;100645.94;5093118;28;20484;-61
2022/11/10 05:08:42;;;;;;;12.20;6.87;;;;;;;10.33;90.36;100641.09;5080578;28;20428;-61
2022/11/10 05:11:11;;;;;;;14.60;7.83;;;;;;;10.33;90.00;100642.91;5082415;28;20480;-61
2022/11/10 05:13:37;;;;;;;11.57;6.30;;;;;;;10.31;89.89;100656.41;5084458;28;20432;-61
2022/11/10 05:16:05;;;;;;;11.47;7.10;;;;;;;10.39;89.77;100666.44;5095962;28;20475;-61
2022/11/10 05:18:32;;;;;;;16.73;7.10;;;;;;;10.38;89.90;100667.44;5083798;28;20440;-61
2022/11/10 05:20:59;;;;;;;16.73;7.67;;;;;;;10.44;89.62;100668.72;5080347;28;20470;-61
2022/11/10 05:23:38;;;;;;;12.43;6.40;;;;;;;10.59;89.14;100677.25;5084080;28;20456;-61
2022/11/10 05:26:05;;;;;;;23.97;7.90;;;;;;;10.51;89.18;100667.22;5081594;28;20479;-62
2022/11/10 05:28:34;;;;;;;11.23;6.30;;;;;;;10.49;89.49;100683.41;5083927;28;20452;-62
2022/11/10 05:31:01;;;;;;;10.70;6.07;;;;;;;10.55;89.28;100685.56;5091071;28;21014;-61
2022/11/10 05:33:27;;;;;;;17.03;6.37;;;;;;;10.41;89.43;100687.69;5083654;28;21010;-61
2022/11/10 05:35:54;;;;;;;19.50;6.57;;;;;;;10.48;89.40;100689.72;5089176;28;20460;-61
2022/11/10 05:38:21;;;;;;;16.10;6.20;;;;;;;10.43;89.81;100694.59;5091055;28;20448;-71
2022/11/10 05:40:47;;;;;;;19.13;6.97;;;;;;;10.40;89.96;100694.00;5094397;28;20534;-76
2022/11/10 05:43:15;;;;;;;11.40;6.60;;;;;;;10.48;89.87;100696.91;5083915;28;20496;-72
2022/11/10 05:45:43;;;;;;;22.70;8.77;;;;;;;10.52;89.26;100695.69;5081596;28;20484;-71
2022/11/10 05:48:10;;;;;;;9.17;6.37;;;;;;;10.53;89.68;100692.84;5086339;28;20532;-72
2022/11/10 05:50:37;;;;;;;18.70;7.30;;;;;;;10.53;89.38;100690.19;5102807;28;20478;-72
2022/11/10 05:53:03;;;;;;;25.47;10.20;;;;;;;10.44;89.86;100688.28;5099612;28;20444;-71
2022/11/10 05:55:30;;;;;;;27.10;9.27;;;;;;;10.60;89.96;100698.53;5101620;28;20471;-72
2022/11/10 05:57:57;;;;;;;15.70;10.50;;;;;;;10.51;89.76;100700.16;5102525;28;20931;-71
2022/11/10 06:00:26;;;;;;;17.80;9.77;;;;;;;10.59;89.56;100704.00;5061462;28;20475;-71
2022/11/10 06:03:02;;;;;;;19.90;10.23;;;;;;;10.47;90.03;100709.41;5080189;28;20458;-72
2022/11/10 06:05:30;;;;;;;16.20;8.80;;;;;;;10.30;90.31;100715.28;5081596;28;20492;-71
2022/11/10 06:07:57;;;;;;;14.50;8.83;;;;;;;10.27;90.75;100728.91;5083349;28;20436;-71
2022/11/10 06:10:23;;;;;;;21.63;9.67;;;;;;;10.30;91.23;100726.00;5081746;28;20482;-62
2022/11/10 06:12:50;;;;;;;16.40;9.10;;;;;;;10.34;91.20;100730.13;5082977;28;20474;-62
2022/11/10 06:15:17;;;;;;;19.90;9.90;;;;;;;10.35;91.19;100724.66;5079940;28;20456;-62
2022/11/10 06:17:44;;;;;;;23.43;10.63;;;;;;;10.32;91.22;100718.72;5083719;28;20447;-61
2022/11/10 06:20:13;;;;;;;23.73;11.30;;;;;;;10.43;90.96;100728.50;5085575;28;20475;-62
2022/11/10 06:22:40;;;;;;;21.13;11.33;;;;;;;10.49;90.58;100728.84;5090817;28;20475;-61
2022/11/10 06:25:07;;;;;;;21.63;10.73;;;;;;;10.48;90.20;100734.31;5074496;28;20462;-60
2022/11/10 06:27:34;;;;;;;23.80;11.70;;;;;;;10.41;90.35;100722.44;5083038;28;20492;-61
2022/11/10 06:30:01;;;;;;;17.70;10.20;;;;;;;10.36;90.43;100734.38;5086778;28;20452;-61
2022/11/10 06:32:28;;;;;;;21.07;10.27;;;;;;;10.34;90.45;100740.81;5095616;28;20456;-61
2022/11/10 06:34:54;;;;;;;21.70;10.30;;;;;;;10.35;90.50;100750.53;5084010;28;20897;-61
2022/11/10 06:37:23;;;;;;;20.90;10.73;;;;;;;10.30;90.48;100744.69;5081865;28;20499;-61
2022/11/10 06:39:49;;;;;;;21.03;9.40;;;;;;;10.23;91.05;100749.69;5081487;28;20444;-61
2022/11/10 06:42:16;;;;;;;17.23;8.70;;;;;;;10.28;90.91;100754.66;5080946;28;20484;-61
2022/11/10 06:44:43;;;;;;;13.80;6.23;;;;;;;10.18;91.43;100749.22;5082113;28;20456;-61
2022/11/10 06:47:10;;;;;;;15.97;8.07;;;;;;;10.25;91.24;100762.94;5080861;28;20480;-61
2022/11/10 06:49:36;;;;;;;14.67;6.87;;;;;;;10.25;91.08;100766.44;5081963;28;20448;-61
2022/11/10 06:52:03;;;;;;;16.73;7.13;;;;;;;10.27;90.93;100775.19;5081618;28;20476;-61
2022/11/10 06:54:31;;;;;;;20.80;6.67;;;;;;;10.31;90.82;100773.09;5081583;28;20440;-61
2022/11/10 06:56:58;;;;;;;15.20;6.70;;;;;;;10.39;90.86;100781.38;5081512;28;20553;-61
2022/11/10 06:59:25;;;;;;;10.93;5.70;;;;;;;10.35;90.71;100777.28;5099591;28;20443;-61
2022/11/10 07:01:51;;;;;;;15.30;6.47;;;;;;;10.38;90.50;100787.72;5100906;28;21072;-61
2022/11/10 07:04:18;;;;;;;15.93;5.70;;;;;;;10.41;90.15;100792.78;5102025;28;20452;-60
2022/11/10 07:06:46;;;;;;;17.50;6.77;;;;;;;10.49;90.19;100797.50;5101661;28;20501;-61
2022/11/10 07:09:12;;;;;;;11.50;5.40;;;;;;;10.55;89.36;100808.56;5086014;28;20440;-61
2022/11/10 07:11:41;;;;;;;15.50;6.30;;;;;;;10.63;89.14;100797.22;5080411;28;20498;-63
2022/11/10 07:14:08;;;;;;;12.90;5.43;;;;;;;10.66;88.69;100804.97;5081540;28;20473;-61
2022/11/10 07:16:34;;;;;;;15.80;5.47;;;;;;;10.83;88.10;100816.97;5080527;28;20464;-61
2022/11/10 07:19:01;;;;;;;15.20;5.17;;;;;;;10.68;88.20;100803.03;5081074;28;20436;-61
2022/11/10 07:21:28;;;;;;;20.23;6.23;;;;;;;10.79;87.92;100810.16;5080946;28;20472;-61
2022/11/10 07:23:54;;;;;;;18.00;6.43;;;;;;;10.82;88.20;100820.59;5080790;28;20444;-61
2022/11/10 07:26:21;;;;;;;16.70;7.03;;;;;;;10.68;88.46;100820.91;5080533;28;20757;-61
2022/11/10 07:28:49;;;;;;;14.27;6.10;;;;;;;10.89;87.54;100824.44;5082146;28;20428;-61
2022/11/10 07:31:16;;;;;;;19.50;7.70;;;;;;;10.85;87.62;100832.84;5080343;28;20479;-61
2022/11/10 07:33:44;;;;;;;13.17;6.50;;;;;;;10.89;87.34;100837.00;5080632;28;20448;-61
2022/11/10 07:36:11;;;;;;;12.40;6.30;;;;;;;11.06;86.66;100851.63;5081382;28;20498;-61
2022/11/10 07:38:38;;;;;;;17.07;6.43;;;;;;;11.12;86.33;100851.09;5080554;28;20440;-62
2022/11/10 07:41:05;;;;;;;17.40;6.93;;;;;;;11.01;86.03;100860.03;5080170;28;20480;-62
2022/11/10 07:43:32;;;;;;;13.17;6.83;;;;;;;11.23;85.74;100861.75;5079952;28;20488;-62
2022/11/10 07:46:00;;;;;;;14.00;6.70;;;;;;;11.15;85.87;100861.56;5079599;28;20491;-61
2022/11/10 07:48:27;;;;;;;15.00;7.87;;;;;;;11.15;86.54;100858.03;5080708;28;20861;-61
2022/11/10 07:50:54;;;;;;;27.03;9.33;;;;;;;11.30;85.74;100872.78;5080172;28;20472;-60
2022/11/10 07:53:21;;;;;;;20.47;8.00;;;;;;;11.22;85.59;100889.50;5080453;28;20432;-62
2022/11/10 07:55:48;;;;;;;21.37;8.50;;;;;;;11.50;84.56;100895.19;5079052;28;20472;-62
2022/11/10 07:58:17;;;;;;;14.73;7.17;;;;;;;11.50;84.23;100892.50;5080627;28;20531;-61
2022/11/10 08:00:45;;;;;;;18.73;6.93;;;;;;;11.69;84.44;100900.66;5079639;28;20476;-61
2022/11/10 08:03:14;;;;;;;13.60;7.30;;;;;;;11.27;85.17;100895.31;5081263;28;20450;-61
2022/11/10 08:05:42;;;;;;;13.53;7.30;;;;;;;11.21;85.73;100908.34;5079267;28;20463;-61
2022/11/10 08:08:09;;;;;;;18.97;8.10;;;;;;;11.31;85.99;100909.28;5080268;28;20492;-61
2022/11/10 08:10:35;;;;;;;16.83;8.60;;;;;;;11.27;86.10;100916.72;5079589;28;20468;-62
2022/11/10 08:13:03;;;;;;;21.43;7.67;;;;;;;11.28;86.13;100914.88;5095061;28;20890;-61
2022/11/10 08:15:31;;;;;;;18.57;8.70;;;;;;;11.19;86.49;100924.53;5099703;28;20483;-61
2022/11/10 08:17:59;;;;;;;18.97;8.37;;;;;;;11.41;86.08;100926.28;5100496;28;20434;-61
2022/11/10 08:20:28;;;;;;;11.80;8.00;;;;;;;11.66;84.62;100916.16;5099574;28;20477;-61
2022/11/10 08:22:59;;;;;;;14.17;7.13;;;;;;;11.80;84.00;100941.75;5100566;28;20439;-61
2022/11/10 08:25:26;;;;;;;12.83;7.60;;;;;;;11.84;83.14;100932.50;5099546;28;20473;-61
2022/11/10 08:27:58;;;;;;;18.80;9.03;;;;;;;12.15;82.18;100951.28;5100650;28;20475;-61
2022/11/10 08:30:25;;;;;;;14.93;7.00;;;;;;;12.52;80.50;100940.03;5099218;28;20486;-61
2022/11/10 08:32:54;;;;;;;14.83;6.60;;;;;;;12.50;79.69;100944.66;5098468;28;20423;-61
2022/11/10 08:35:21;;;;;;;17.70;6.63;;;;;;;12.76;78.69;100940.50;5079307;28;20523;-61
2022/11/10 08:37:49;;;;;;;23.67;6.53;;;;;;;12.50;78.68;100936.59;5079540;28;20460;-61
2022/11/10 08:40:17;;;;;;;13.60;5.77;;;;;;;12.58;79.28;100944.81;5084445;28;20481;-61
2022/11/10 08:42:43;;;;;;;15.60;6.27;;;;;;;12.43;79.63;100942.53;5100458;28;20494;-61
2022/11/10 08:45:10;;;;;;;18.40;5.20;;;;;;;13.29;77.88;100951.88;5101505;28;20492;-61
2022/11/10 08:47:37;;;;;;;12.43;5.70;;;;;;;13.85;73.51;100956.53;5097051;28;20498;-61
2022/11/10 08:50:04;;;;;;;14.53;4.60;;;;;;;14.05;73.67;100961.84;5084499;28;20454;-61
2022/11/10 08:52:31;;;;;;;11.17;4.60;;;;;;;14.80;69.14;100957.28;5083489;28;20475;-61
2022/11/10 08:54:59;;;;;;;17.03;4.37;;;;;;;14.38;70.88;100968.53;5084047;28;20448;-61
2022/11/10 08:57:26;;;;;;;12.60;4.53;;;;;;;14.96;68.91;100970.09;5083203;28;20464;-61
2022/11/10 08:59:52;;;;;;;15.27;5.40;;;;;;;13.90;71.29;100964.97;5083376;28;20459;-62
2022/11/10 09:02:19;;;;;;;14.13;4.23;;;;;;;14.35;70.80;100979.56;5083969;28;20488;-61
2022/11/10 09:04:46;;;;;;;11.60;4.50;;;;;;;15.10;68.46;100986.72;5083561;28;20452;-61
2022/11/10 09:07:13;;;;;;;11.77;3.70;;;;;;;14.82;68.78;100995.66;5083220;28;20479;-61
2022/11/10 09:09:40;;;;;;;12.57;3.97;;;;;;;14.76;69.50;101007.06;5096252;28;20840;-61
2022/11/10 09:12:08;;;;;;;16.87;4.40;;;;;;;16.23;64.47;100990.59;5103216;28;20475;-61
2022/11/10 09:14:35;;;;;;;12.27;3.50;;;;;;;15.46;64.85;100982.22;5104208;28;20456;-61
2022/11/10 09:17:01;;;;;;;12.07;3.37;;;;;;;15.66;65.45;100980.19;5088567;28;20841;-61
2022/11/10 09:19:28;;;;;;;10.50;3.20;;;;;;;15.85;64.18;100992.69;5083631;28;20441;-62
2022/11/10 09:21:55;;;;;;;12.20;3.77;;;;;;;14.88;67.14;101005.00;5083025;28;20477;-62
2022/11/10 09:24:22;;;;;;;13.70;3.47;;;;;;;15.53;65.87;101004.00;5083068;28;20482;-61
2022/11/10 09:26:48;;;;;;;13.07;3.20;;;;;;;15.80;65.02;101003.94;5082667;28;20486;-62
2022/11/10 09:29:16;;;;;;;11.10;3.40;;;;;;;15.49;65.38;101003.47;5083412;28;20479;-61
2022/11/10 09:31:44;;;;;;;11.80;4.43;;;;;;;14.65;68.68;101012.63;5097728;28;20702;-61
2022/11/10 09:34:10;;;;;;;22.80;4.60;;;;;;;15.34;67.48;101021.16;5103966;28;20483;-61
2022/11/10 09:36:39;;;;;;;13.40;3.93;;;;;;;15.34;66.67;101019.31;5102542;28;20471;-61
2022/11/10 09:39:05;;;;;;;16.30;3.93;;;;;;;14.71;68.89;101019.28;5103955;28;20447;-62
2022/11/10 09:41:32;;;;;;;12.47;5.20;;;;;;;15.84;64.55;101015.25;5102465;28;20486;-62
2022/11/10 09:44:02;;;;;;;16.17;4.90;;;;;;;14.12;70.44;101038.25;5101971;28;20713;-61
2022/11/10 09:46:34;;;;;;;17.13;4.20;;;;;;;15.55;67.11;101028.94;5103010;28;20542;-62
2022/11/10 09:49:05;;;;;;;11.83;3.63;;;;;;;16.66;63.33;101028.41;5103803;28;20502;-61
2022/11/10 09:51:35;;;;;;;8.63;2.83;;;;;;;17.79;57.75;101028.06;5102652;28;20914;-61
2022/11/10 09:54:04;;;;;;;13.87;3.40;;;;;;;18.62;55.01;101021.53;5104323;28;20434;-62
2022/11/10 09:56:33;;;;;;;11.77;3.30;;;;;;;17.30;58.32;101039.66;5102463;28;20484;-61
2022/11/10 09:59:00;;;;;;;11.53;3.63;;;;;;;17.00;59.66;101038.41;5102851;28;20896;-61
2022/11/10 10:01:33;;;;;;;13.23;3.00;;;;;;;17.75;57.21;101037.53;5103491;28;20478;-61
2022/11/10 10:04:18;;;;;;;14.37;3.67;;;;;;;17.04;59.53;101037.06;5103123;28;20426;-61
2022/11/10 10:06:49;;;;;;;10.30;3.93;;;;;;;17.31;58.71;101042.19;5102289;28;20505;-61
2022/11/10 10:09:24;;;;;;;10.53;3.07;;;;;;;17.17;59.36;101041.97;5103648;28;20466;-61
2022/11/10 10:12:01;;;;;;;8.50;2.90;;;;;;;19.07;54.04;101041.69;5101816;28;20468;-62
2022/11/10 10:14:51;;;;;;;13.13;3.00;;;;;;;17.97;55.70;101044.16;5062443;28;20456;-61
2022/11/10 10:17:24;;;;;;;17.93;3.70;;;;;;;16.72;59.29;101046.69;5061892;28;20520;-62
2022/11/10 10:19:56;;;;;;;15.83;3.47;;;;;;;17.10;58.46;101056.16;5100292;28;20455;-61
2022/11/10 10:22:37;;;;;;;12.10;3.70;;;;;;;16.12;62.44;101052.88;5102728;28;20987;-61
2022/11/10 10:25:11;;;;;;;10.80;3.23;;;;;;;16.31;62.44;101058.06;5102928;28;20490;-61
2022/11/10 10:27:40;;;;;;;16.43;3.50;;;;;;;16.50;60.25;101043.53;5089003;28;20492;-61
2022/11/10 10:30:13;;;;;;;15.70;2.93;;;;;;;16.68;60.61;101048.00;5081498;28;20434;-62
2022/11/10 10:32:41;;;;;;;11.67;3.27;;;;;;;18.25;55.23;101039.22;5082312;28;20434;-62
2022/11/10 10:35:12;;;;;;;12.43;2.97;;;;;;;17.39;57.41;101043.22;5081243;28;20481;-61
2022/11/10 10:37:42;;;;;;;11.73;2.97;;;;;;;17.19;57.60;101042.69;5082101;28;20429;-61
2022/11/10 10:40:14;;;;;;;13.93;2.77;;;;;;;17.60;57.12;101045.44;5081440;28;20451;-61
2022/11/10 10:42:41;;;;;;;11.70;3.40;;;;;;;18.23;54.78;101043.97;5103270;28;20519;-62
2022/11/10 10:45:22;;;;;;;13.60;3.30;;;;;;;18.10;55.14;101049.06;5103090;28;20863;-62
2022/11/10 10:47:53;;;;;;;11.43;2.80;;;;;;;19.07;52.34;101055.25;5103414;28;20520;-61
2022/11/10 10:50:28;;;;;;;10.97;3.10;;;;;;;19.19;51.62;101051.13;5103523;28;20438;-61
2022/11/10 10:53:22;;;;;;;12.20;2.97;;;;;;;19.14;51.53;101056.22;5103981;28;20903;-62
2022/11/10 10:55:53;;;;;;;13.30;3.47;;;;;;;19.03;51.90;101037.66;5047438;28;20466;-62
2022/11/10 10:58:26;;;;;;;10.73;3.50;;;;;;;18.70;52.31;101047.75;5089689;28;20773;-62
2022/11/10 11:00:56;;;;;;;10.53;2.73;;;;;;;17.17;56.29;101036.56;5101200;28;20521;-61
2022/11/10 11:03:29;;;;;;;11.43;2.53;;;;;;;16.24;59.72;101040.00;5102793;28;20434;-61
2022/11/10 11:06:04;;;;;;;11.07;3.50;;;;;;;16.74;58.46;101047.38;5102612;28;20500;-62
2022/11/10 11:08:31;;;;;;;5.80;2.27;;;;;;;17.03;57.81;101049.72;5100969;28;20974;-62
2022/11/10 11:11:07;;;;;;;11.97;3.00;;;;;;;16.73;59.47;101051.06;5086862;28;20476;-62
2022/11/10 11:13:34;;;;;;;14.13;3.20;;;;;;;16.40;60.58;101053.56;5082938;28;20460;-62
2022/11/10 11:16:02;;;;;;;8.10;2.53;;;;;;;17.29;56.33;101049.63;5079409;28;20491;-61
2022/11/10 11:18:31;;;;;;;11.27;3.47;;;;;;;16.48;60.01;101066.28;5081978;28;20455;-61
2022/11/10 11:21:01;;;;;;;7.93;2.13;;;;;;;15.51;62.93;101066.13;5081178;28;20506;-62
2022/11/10 11:24:05;;;;;;;14.10;3.67;;;;;;;15.95;61.86;101068.94;5080823;28;20539;-61
2022/11/10 11:26:40;;;;;;;11.93;3.13;;;;;;;15.59;63.85;101071.63;5080450;28;20477;-61
2022/11/10 11:29:21;;;;;;;7.50;2.70;;;;;;;15.71;62.89;101068.69;5080599;28;20895;-61
2022/11/10 11:31:59;;;;;;;15.53;3.00;;;;;;;15.43;64.50;101084.91;5080678;28;21035;-61